createdAt,value
2018-04-19T00:00:35.149Z,0
2018-04-19T00:01:35.819Z,0
2018-04-19T00:02:36.489Z,0
2018-04-19T00:03:37.159Z,0
2018-04-19T00:04:37.829Z,0
2018-04-19T00:05:38.494Z,0
2018-04-19T00:06:39.180Z,0
2018-04-19T00:07:39.852Z,0
2018-04-19T00:08:40.525Z,0
2018-04-19T00:09:41.196Z,0
2018-04-19T00:10:41.870Z,0
2018-04-19T00:11:42.543Z,0
2018-04-19T00:12:43.214Z,0
2018-04-19T00:13:43.890Z,0
2018-04-19T00:14:44.562Z,0
2018-04-19T00:15:45.232Z,0
2018-04-19T00:16:45.902Z,0
2018-04-19T00:17:46.572Z,0
2018-04-19T00:18:47.249Z,0
2018-04-19T00:19:47.928Z,0
2018-04-19T00:20:48.600Z,0
2018-04-19T00:21:49.273Z,0
2018-04-19T00:22:49.946Z,0
2018-04-19T00:23:50.616Z,0
2018-04-19T00:24:51.285Z,0
2018-04-19T00:25:51.957Z,0
2018-04-19T00:26:52.628Z,0
2018-04-19T00:27:53.299Z,0
2018-04-19T00:28:53.977Z,0
2018-04-19T00:29:54.649Z,0
2018-04-19T00:30:55.319Z,0
2018-04-19T00:31:55.989Z,0
2018-04-19T00:32:56.663Z,0
2018-04-19T00:33:57.335Z,0
2018-04-19T00:34:58.004Z,0
2018-04-19T00:35:58.677Z,0
2018-04-19T00:36:59.347Z,0
2018-04-19T00:38:00.025Z,0
2018-04-19T00:39:00.693Z,0
2018-04-19T00:40:01.371Z,0
2018-04-19T00:41:02.047Z,0
2018-04-19T00:42:02.719Z,0
2018-04-19T00:43:03.393Z,0
2018-04-19T00:44:04.068Z,0
2018-04-19T00:45:04.737Z,0
2018-04-19T00:46:05.416Z,0
2018-04-19T00:47:06.088Z,0
2018-04-19T00:48:06.758Z,0
2018-04-19T00:49:07.427Z,0
2018-04-19T00:50:08.095Z,0
2018-04-19T00:51:08.770Z,0
2018-04-19T00:52:09.443Z,0
2018-04-19T00:53:10.147Z,0
2018-04-19T00:54:10.787Z,0
2018-04-19T00:55:11.459Z,0
2018-04-19T00:56:12.128Z,0
2018-04-19T00:57:12.798Z,0
2018-04-19T00:58:13.470Z,0
2018-04-19T00:59:14.146Z,0
2018-04-19T01:00:14.822Z,0
2018-04-19T01:01:15.478Z,0
2018-04-19T01:02:16.159Z,0
2018-04-19T01:03:16.833Z,0
2018-04-19T01:04:17.505Z,0
2018-04-19T01:05:18.175Z,0
2018-04-19T01:06:18.846Z,0
2018-04-19T01:07:19.515Z,0
2018-04-19T01:08:20.188Z,0
2018-04-19T01:09:20.865Z,0
2018-04-19T01:10:21.556Z,0
2018-04-19T01:11:22.202Z,0
2018-04-19T01:12:22.879Z,0
2018-04-19T01:13:23.552Z,0
2018-04-19T01:14:24.221Z,0
2018-04-19T01:15:24.891Z,0
2018-04-19T01:16:25.574Z,0
2018-04-19T01:17:26.244Z,0
2018-04-19T01:18:26.919Z,0
2018-04-19T01:19:27.590Z,0
2018-04-19T01:20:28.261Z,0
2018-04-19T01:21:28.935Z,0
2018-04-19T01:22:29.605Z,0
2018-04-19T01:23:30.273Z,0
2018-04-19T01:24:30.942Z,0
2018-04-19T01:25:31.613Z,0
2018-04-19T01:26:32.283Z,0
2018-04-19T01:27:32.954Z,0
2018-04-19T01:28:33.627Z,0
2018-04-19T01:29:34.293Z,0
2018-04-19T01:30:34.960Z,0
2018-04-19T01:31:35.637Z,0
2018-04-19T01:32:36.366Z,0
2018-04-19T01:33:37.037Z,0
2018-04-19T01:34:37.708Z,0
2018-04-19T01:35:38.380Z,0
2018-04-19T01:36:39.053Z,0
2018-04-19T01:37:39.726Z,0
2018-04-19T01:38:40.399Z,0
2018-04-19T01:39:41.080Z,0
2018-04-19T01:40:41.756Z,0
2018-04-19T01:41:42.428Z,0
2018-04-19T01:42:43.100Z,0
2018-04-19T01:43:43.779Z,0
2018-04-19T01:44:44.451Z,0
2018-04-19T01:45:45.120Z,0
2018-04-19T01:46:45.800Z,0
2018-04-19T01:47:46.468Z,0
2018-04-19T01:48:47.149Z,0
2018-04-19T01:49:47.826Z,0
2018-04-19T01:50:48.495Z,0
2018-04-19T01:51:49.163Z,0
2018-04-19T01:52:49.833Z,0
2018-04-19T01:53:50.516Z,0
2018-04-19T01:54:51.186Z,0
2018-04-19T01:55:51.857Z,0
2018-04-19T01:56:52.527Z,0
2018-04-19T01:57:53.196Z,0
2018-04-19T01:58:53.875Z,0
2018-04-19T01:59:54.548Z,0
2018-04-19T02:00:55.218Z,0
2018-04-19T02:01:55.891Z,0
2018-04-19T02:02:56.560Z,0
2018-04-19T02:03:57.235Z,0
2018-04-19T02:04:57.905Z,0
2018-04-19T02:05:58.578Z,0
2018-04-19T02:06:59.248Z,0
2018-04-19T02:07:59.921Z,0
2018-04-19T02:09:00.595Z,0
2018-04-19T02:10:01.275Z,0
2018-04-19T02:11:01.943Z,0
2018-04-19T02:12:02.615Z,0
2018-04-19T02:13:03.283Z,0
2018-04-19T02:14:03.960Z,0
2018-04-19T02:15:04.631Z,0
2018-04-19T02:16:05.299Z,0
2018-04-19T02:17:05.975Z,0
2018-04-19T02:18:06.646Z,0
2018-04-19T02:19:07.322Z,0
2018-04-19T02:20:07.986Z,0
2018-04-19T02:21:08.659Z,0
2018-04-19T02:22:09.329Z,0
2018-04-19T02:23:09.998Z,0
2018-04-19T02:24:10.668Z,0
2018-04-19T02:25:11.339Z,0
2018-04-19T02:26:12.011Z,0
2018-04-19T02:27:12.677Z,0
2018-04-19T02:28:13.351Z,0
2018-04-19T02:29:14.022Z,0
2018-04-19T02:30:14.694Z,0
2018-04-19T02:31:15.369Z,0
2018-04-19T02:32:16.041Z,0
2018-04-19T02:33:16.710Z,0
2018-04-19T02:34:17.373Z,0
2018-04-19T02:35:18.044Z,0
2018-04-19T02:36:18.715Z,0
2018-04-19T02:37:19.396Z,0
2018-04-19T02:38:20.066Z,0
2018-04-19T02:39:20.732Z,0
2018-04-19T02:40:21.404Z,0
2018-04-19T02:41:22.076Z,0
2018-04-19T02:42:22.746Z,0
2018-04-19T02:43:23.414Z,0
2018-04-19T02:44:24.088Z,0
2018-04-19T02:45:24.762Z,0
2018-04-19T02:46:25.429Z,0
2018-04-19T02:47:26.098Z,0
2018-04-19T02:48:26.773Z,0
2018-04-19T02:49:27.441Z,0
2018-04-19T02:50:28.169Z,0
2018-04-19T02:51:28.782Z,0
2018-04-19T02:52:29.456Z,0
2018-04-19T02:53:30.131Z,0
2018-04-19T02:54:30.800Z,0
2018-04-19T02:55:31.471Z,0
2018-04-19T02:56:32.139Z,0
2018-04-19T02:57:32.808Z,0
2018-04-19T02:58:33.480Z,0
2018-04-19T02:59:34.145Z,0
2018-04-19T03:00:34.816Z,0
2018-04-19T03:01:35.487Z,0
2018-04-19T03:02:36.171Z,0
2018-04-19T03:03:36.825Z,0
2018-04-19T03:04:37.493Z,0
2018-04-19T03:05:38.161Z,0
2018-04-19T03:06:38.834Z,0
2018-04-19T03:07:39.495Z,0
2018-04-19T03:08:40.385Z,0
2018-04-19T03:09:41.059Z,0
2018-04-19T03:10:41.723Z,0
2018-04-19T03:11:42.393Z,0
2018-04-19T03:12:43.068Z,0
2018-04-19T03:13:43.736Z,0
2018-04-19T03:14:44.407Z,0
2018-04-19T03:15:45.080Z,0
2018-04-19T03:16:45.751Z,0
2018-04-19T03:17:46.422Z,0
2018-04-19T03:18:47.090Z,0
2018-04-19T03:19:47.758Z,0
2018-04-19T03:20:48.428Z,0
2018-04-19T03:21:49.099Z,0
2018-04-19T03:22:49.774Z,0
2018-04-19T03:23:50.448Z,0
2018-04-19T03:24:51.117Z,0
2018-04-19T03:25:51.785Z,0
2018-04-19T03:26:52.451Z,0
2018-04-19T03:27:53.126Z,0
2018-04-19T03:28:53.796Z,0
2018-04-19T03:29:54.467Z,0
2018-04-19T03:30:55.139Z,0
2018-04-19T03:31:55.815Z,0
2018-04-19T03:32:56.483Z,0
2018-04-19T03:33:57.155Z,0
2018-04-19T03:34:57.823Z,0
2018-04-19T03:35:58.492Z,0
2018-04-19T03:36:59.161Z,0
2018-04-19T03:37:59.829Z,0
2018-04-19T03:39:00.496Z,0
2018-04-19T03:40:01.168Z,0
2018-04-19T03:41:01.840Z,0
2018-04-19T03:42:02.510Z,0
2018-04-19T03:43:03.179Z,0
2018-04-19T03:44:03.853Z,0
2018-04-19T03:45:04.526Z,0
2018-04-19T03:46:05.196Z,0
2018-04-19T03:47:05.871Z,0
2018-04-19T03:48:06.555Z,0
2018-04-19T03:49:07.228Z,0
2018-04-19T03:50:07.901Z,0
2018-04-19T03:51:08.652Z,0
2018-04-19T03:52:09.322Z,0
2018-04-19T03:53:09.993Z,4
2018-04-19T03:54:10.665Z,0
2018-04-19T03:55:11.336Z,4
2018-04-19T03:56:12.016Z,4
2018-04-19T03:57:12.683Z,4
2018-04-19T03:58:13.352Z,4
2018-04-19T03:59:14.029Z,4
2018-04-19T04:00:14.699Z,8
2018-04-19T04:01:15.407Z,8
2018-04-19T04:02:16.040Z,8
2018-04-19T04:03:16.716Z,12
2018-04-19T04:04:17.385Z,16
2018-04-19T04:05:18.055Z,16
2018-04-19T04:06:18.724Z,20
2018-04-19T04:07:19.393Z,24
2018-04-19T04:08:20.064Z,24
2018-04-19T04:09:20.734Z,32
2018-04-19T04:10:21.406Z,40
2018-04-19T04:11:22.078Z,44
2018-04-19T04:12:22.750Z,52
2018-04-19T04:13:23.425Z,56
2018-04-19T04:14:24.092Z,68
2018-04-19T04:15:24.765Z,76
2018-04-19T04:16:25.460Z,88
2018-04-19T04:17:26.109Z,100
2018-04-19T04:18:26.785Z,104
2018-04-19T04:19:27.458Z,120
2018-04-19T04:20:28.132Z,132
2018-04-19T04:21:28.803Z,144
2018-04-19T04:22:29.478Z,156
2018-04-19T04:23:30.152Z,164
2018-04-19T04:24:30.821Z,176
2018-04-19T04:25:31.496Z,188
2018-04-19T04:26:32.174Z,204
2018-04-19T04:27:32.841Z,220
2018-04-19T04:28:33.514Z,232
2018-04-19T04:29:34.186Z,248
2018-04-19T04:30:34.860Z,268
2018-04-19T04:31:35.533Z,288
2018-04-19T04:32:36.210Z,308
2018-04-19T04:33:36.884Z,328
2018-04-19T04:34:37.557Z,352
2018-04-19T04:35:38.228Z,376
2018-04-19T04:36:38.900Z,400
2018-04-19T04:37:39.570Z,420
2018-04-19T04:38:40.247Z,448
2018-04-19T04:39:40.917Z,472
2018-04-19T04:40:41.595Z,496
2018-04-19T04:41:42.289Z,524
2018-04-19T04:42:43.052Z,548
2018-04-19T04:43:43.725Z,576
2018-04-19T04:44:44.397Z,600
2018-04-19T04:45:45.070Z,628
2018-04-19T04:46:45.755Z,652
2018-04-19T04:47:46.429Z,676
2018-04-19T04:48:47.100Z,704
2018-04-19T04:49:47.775Z,728
2018-04-19T04:50:48.454Z,756
2018-04-19T04:51:49.126Z,780
2018-04-19T04:52:49.801Z,808
2018-04-19T04:53:50.474Z,836
2018-04-19T04:54:51.156Z,864
2018-04-19T04:55:51.829Z,892
2018-04-19T04:56:52.503Z,920
2018-04-19T04:57:53.177Z,952
2018-04-19T04:58:53.852Z,980
2018-04-19T04:59:54.527Z,1012
2018-04-19T05:00:55.196Z,1044
2018-04-19T05:01:55.879Z,1088
2018-04-19T05:02:56.559Z,1132
2018-04-19T05:03:57.235Z,1172
2018-04-19T05:04:57.926Z,1208
2018-04-19T05:05:58.604Z,1240
2018-04-19T05:06:59.278Z,1268
2018-04-19T05:07:59.963Z,1284
2018-04-19T05:09:00.632Z,1296
2018-04-19T05:10:01.307Z,1300
2018-04-19T05:11:01.981Z,1304
2018-04-19T05:12:02.656Z,1320
2018-04-19T05:13:03.330Z,1336
2018-04-19T05:14:04.008Z,1356
2018-04-19T05:15:04.686Z,1368
2018-04-19T05:16:05.372Z,1380
2018-04-19T05:17:06.045Z,1396
2018-04-19T05:18:06.716Z,1408
2018-04-19T05:19:07.408Z,1416
2018-04-19T05:20:08.082Z,1424
2018-04-19T05:21:08.775Z,1436
2018-04-19T05:22:09.452Z,1444
2018-04-19T05:23:10.126Z,1456
2018-04-19T05:24:10.802Z,1472
2018-04-19T05:25:11.477Z,1484
2018-04-19T05:26:12.157Z,1496
2018-04-19T05:27:12.825Z,1512
2018-04-19T05:28:13.507Z,1528
2018-04-19T05:29:14.193Z,1540
2018-04-19T05:30:14.866Z,1556
2018-04-19T05:31:15.545Z,1576
2018-04-19T05:32:16.450Z,1596
2018-04-19T05:33:17.126Z,1616
2018-04-19T05:34:17.801Z,1628
2018-04-19T05:35:18.474Z,1628
2018-04-19T05:36:19.148Z,1636
2018-04-19T05:37:19.830Z,1632
2018-04-19T05:38:20.506Z,1640
2018-04-19T05:39:21.187Z,1656
2018-04-19T05:40:21.869Z,1672
2018-04-19T05:41:22.545Z,1684
2018-04-19T05:42:23.218Z,1708
2018-04-19T05:43:23.891Z,1724
2018-04-19T05:44:24.568Z,1732
2018-04-19T05:45:25.247Z,1748
2018-04-19T05:46:25.959Z,1764
2018-04-19T05:47:26.607Z,1768
2018-04-19T05:48:27.286Z,1768
2018-04-19T05:49:27.962Z,1768
2018-04-19T05:50:28.645Z,1776
2018-04-19T05:51:29.321Z,1784
2018-04-19T05:52:30.028Z,1788
2018-04-19T05:53:30.820Z,1792
2018-04-19T05:54:31.545Z,1804
2018-04-19T05:55:32.168Z,1804
2018-04-19T05:56:32.851Z,1808
2018-04-19T05:57:33.526Z,1812
2018-04-19T05:58:34.205Z,1820
2018-04-19T05:59:34.876Z,1828
2018-04-19T06:00:35.560Z,1832
2018-04-19T06:01:36.237Z,1832
2018-04-19T06:02:36.912Z,1840
2018-04-19T06:03:37.591Z,1848
2018-04-19T06:04:38.269Z,1848
2018-04-19T06:05:38.942Z,1752
2018-04-19T06:06:39.617Z,1752
2018-04-19T06:07:40.306Z,1760
2018-04-19T06:08:41.039Z,1764
2018-04-19T06:09:41.656Z,1764
2018-04-19T06:10:42.351Z,1768
2018-04-19T06:11:43.035Z,1776
2018-04-19T06:12:43.706Z,1780
2018-04-19T06:13:44.393Z,1784
2018-04-19T06:14:45.078Z,1788
2018-04-19T06:15:45.752Z,1792
2018-04-19T06:16:46.438Z,1792
2018-04-19T06:17:47.116Z,1800
2018-04-19T06:18:47.791Z,1804
2018-04-19T06:19:48.468Z,1804
2018-04-19T06:20:49.148Z,1804
2018-04-19T06:21:49.823Z,1804
2018-04-19T06:22:50.500Z,1808
2018-04-19T06:23:51.176Z,1812
2018-04-19T06:24:51.908Z,1816
2018-04-19T06:25:52.534Z,1808
2018-04-19T06:26:53.211Z,1812
2018-04-19T06:27:53.889Z,1820
2018-04-19T06:28:54.563Z,1820
2018-04-19T06:29:55.247Z,1824
2018-04-19T06:30:55.924Z,1828
2018-04-19T06:31:56.602Z,1828
2018-04-19T06:32:57.290Z,1828
2018-04-19T06:33:57.979Z,1832
2018-04-19T06:34:58.582Z,1836
2018-04-19T06:35:59.372Z,1836
2018-04-19T06:37:00.020Z,1844
2018-04-19T06:38:00.705Z,1844
2018-04-19T06:39:01.382Z,1852
2018-04-19T06:40:02.050Z,1852
2018-04-19T06:41:02.740Z,1856
2018-04-19T06:42:03.419Z,1860
2018-04-19T06:43:04.102Z,1860
2018-04-19T06:44:04.781Z,1864
2018-04-19T06:45:05.465Z,1864
2018-04-19T06:46:06.152Z,1868
2018-04-19T06:47:06.831Z,1872
2018-04-19T06:48:07.510Z,1872
2018-04-19T06:49:08.186Z,1876
2018-04-19T06:50:08.865Z,1880
2018-04-19T06:51:09.546Z,1884
2018-04-19T06:52:10.226Z,1884
2018-04-19T06:53:10.904Z,1888
2018-04-19T06:54:11.581Z,1892
2018-04-19T06:55:12.257Z,1896
2018-04-19T06:56:12.935Z,1900
2018-04-19T06:57:13.616Z,1900
2018-04-19T06:58:14.294Z,1904
2018-04-19T06:59:14.978Z,1904
2018-04-19T07:00:15.662Z,1912
2018-04-19T07:01:16.344Z,1912
2018-04-19T07:02:17.023Z,1916
2018-04-19T07:03:17.698Z,1920
2018-04-19T07:04:18.374Z,1924
2018-04-19T07:05:19.061Z,1928
2018-04-19T07:06:19.737Z,1932
2018-04-19T07:07:20.421Z,1936
2018-04-19T07:08:21.097Z,1940
2018-04-19T07:09:21.782Z,1944
2018-04-19T07:10:22.462Z,1948
2018-04-19T07:11:23.143Z,1952
2018-04-19T07:12:23.819Z,1952
2018-04-19T07:13:24.497Z,1960
2018-04-19T07:14:25.176Z,1964
2018-04-19T07:15:25.851Z,1972
2018-04-19T07:16:26.533Z,1976
2018-04-19T07:17:27.208Z,1980
2018-04-19T07:18:27.888Z,1988
2018-04-19T07:19:28.568Z,1992
2018-04-19T07:20:29.246Z,1996
2018-04-19T07:21:29.924Z,2004
2018-04-19T07:22:30.602Z,2004
2018-04-19T07:23:31.280Z,2016
2018-04-19T07:24:31.959Z,2020
2018-04-19T07:25:32.641Z,2024
2018-04-19T07:26:33.316Z,2028
2018-04-19T07:27:33.997Z,2036
2018-04-19T07:28:34.672Z,2044
2018-04-19T07:29:35.350Z,2052
2018-04-19T07:30:36.028Z,2060
2018-04-19T07:31:36.712Z,2068
2018-04-19T07:32:37.398Z,2076
2018-04-19T07:33:38.077Z,2084
2018-04-19T07:34:38.753Z,2088
2018-04-19T07:35:39.441Z,2096
2018-04-19T07:36:40.124Z,2100
2018-04-19T07:37:40.805Z,2108
2018-04-19T07:38:41.478Z,2112
2018-04-19T07:39:42.162Z,2120
2018-04-19T07:40:42.847Z,2128
2018-04-19T07:41:43.532Z,2136
2018-04-19T07:42:44.215Z,2144
2018-04-19T07:43:44.896Z,2152
2018-04-19T07:44:45.577Z,2156
2018-04-19T07:45:46.256Z,2164
2018-04-19T07:46:46.947Z,2168
2018-04-19T07:47:47.614Z,2168
2018-04-19T07:48:48.301Z,2180
2018-04-19T07:49:48.979Z,2188
2018-04-19T07:50:49.657Z,2200
2018-04-19T07:51:50.341Z,2204
2018-04-19T07:52:51.017Z,2212
2018-04-19T07:53:51.697Z,2224
2018-04-19T07:54:52.382Z,2236
2018-04-19T07:55:53.067Z,2244
2018-04-19T07:56:53.743Z,2256
2018-04-19T07:57:54.478Z,2268
2018-04-19T07:58:55.100Z,2272
2018-04-19T07:59:55.787Z,2284
2018-04-19T08:00:56.463Z,2296
2018-04-19T08:01:57.143Z,2304
2018-04-19T08:02:57.824Z,2316
2018-04-19T08:03:58.503Z,2328
2018-04-19T08:04:59.179Z,2336
2018-04-19T08:05:59.860Z,2340
2018-04-19T08:07:00.533Z,2352
2018-04-19T08:08:01.221Z,2364
2018-04-19T08:09:01.916Z,2372
2018-04-19T08:10:02.596Z,2380
2018-04-19T08:11:03.279Z,2392
2018-04-19T08:12:03.956Z,2404
2018-04-19T08:13:04.651Z,2416
2018-04-19T08:14:05.332Z,2428
2018-04-19T08:15:06.015Z,2440
2018-04-19T08:16:06.691Z,2448
2018-04-19T08:17:07.371Z,2464
2018-04-19T08:18:08.057Z,2476
2018-04-19T08:19:08.739Z,2488
2018-04-19T08:20:09.418Z,2496
2018-04-19T08:21:10.104Z,2516
2018-04-19T08:22:10.784Z,2524
2018-04-19T08:23:11.465Z,2528
2018-04-19T08:24:12.145Z,2548
2018-04-19T08:25:12.825Z,2560
2018-04-19T08:26:13.507Z,2564
2018-04-19T08:27:14.188Z,2568
2018-04-19T08:28:14.871Z,2576
2018-04-19T08:29:15.544Z,2588
2018-04-19T08:30:16.225Z,2600
2018-04-19T08:31:16.902Z,2604
2018-04-19T08:32:17.590Z,2608
2018-04-19T08:33:18.263Z,2620
2018-04-19T08:34:18.943Z,2624
2018-04-19T08:35:19.623Z,2632
2018-04-19T08:36:20.303Z,2636
2018-04-19T08:37:20.982Z,2656
2018-04-19T08:38:21.672Z,2652
2018-04-19T08:39:22.343Z,2660
2018-04-19T08:40:23.022Z,2672
2018-04-19T08:41:23.704Z,2676
2018-04-19T08:42:24.382Z,2688
2018-04-19T08:43:25.067Z,2696
2018-04-19T08:44:25.760Z,2700
2018-04-19T08:45:26.443Z,2720
2018-04-19T08:46:27.123Z,2732
2018-04-19T08:47:27.802Z,2740
2018-04-19T08:48:28.481Z,2748
2018-04-19T08:49:29.161Z,2768
2018-04-19T08:50:29.842Z,2780
2018-04-19T08:51:30.520Z,2776
2018-04-19T08:52:31.206Z,2792
2018-04-19T08:53:31.889Z,2808
2018-04-19T08:54:32.570Z,2816
2018-04-19T08:55:33.250Z,2832
2018-04-19T08:56:33.930Z,2832
2018-04-19T08:57:34.601Z,2844
2018-04-19T08:58:35.286Z,2856
2018-04-19T08:59:35.971Z,2868
2018-04-19T09:00:36.653Z,2884
2018-04-19T09:01:37.334Z,2904
2018-04-19T09:02:38.016Z,2912
2018-04-19T09:03:38.698Z,2924
2018-04-19T09:04:39.419Z,2952
2018-04-19T09:05:40.110Z,2960
2018-04-19T09:06:40.793Z,2976
2018-04-19T09:07:41.477Z,2992
2018-04-19T09:08:42.156Z,3008
2018-04-19T09:09:42.840Z,3028
2018-04-19T09:10:43.521Z,3048
2018-04-19T09:11:44.202Z,3064
2018-04-19T09:12:44.883Z,3084
2018-04-19T09:13:45.569Z,3104
2018-04-19T09:14:46.251Z,3104
2018-04-19T09:15:46.935Z,3120
2018-04-19T09:16:47.613Z,3136
2018-04-19T09:17:48.294Z,3152
2018-04-19T09:18:48.976Z,3164
2018-04-19T09:19:49.657Z,3188
2018-04-19T09:20:50.338Z,3200
2018-04-19T09:21:51.018Z,3224
2018-04-19T09:22:51.703Z,3228
2018-04-19T09:23:52.376Z,3248
2018-04-19T09:24:53.058Z,3276
2018-04-19T09:25:53.732Z,3284
2018-04-19T09:26:54.419Z,3320
2018-04-19T09:27:55.107Z,3344
2018-04-19T09:28:55.789Z,3340
2018-04-19T09:29:56.475Z,3344
2018-04-19T09:30:57.154Z,3352
2018-04-19T09:31:57.833Z,3376
2018-04-19T09:32:58.511Z,3388
2018-04-19T09:33:59.196Z,3408
2018-04-19T09:34:59.878Z,3436
2018-04-19T09:36:00.564Z,3452
2018-04-19T09:37:01.245Z,3468
2018-04-19T09:38:01.925Z,3488
2018-04-19T09:39:02.605Z,3504
2018-04-19T09:40:03.290Z,3508
2018-04-19T09:41:03.973Z,3520
2018-04-19T09:42:04.649Z,3536
2018-04-19T09:43:05.332Z,3556
2018-04-19T09:44:06.014Z,3576
2018-04-19T09:45:06.695Z,3600
2018-04-19T09:46:07.380Z,3632
2018-04-19T09:47:08.060Z,3636
2018-04-19T09:48:08.738Z,3644
2018-04-19T09:49:09.431Z,3672
2018-04-19T09:50:10.113Z,3700
2018-04-19T09:51:10.791Z,3712
2018-04-19T09:52:11.471Z,3728
2018-04-19T09:53:12.152Z,3744
2018-04-19T09:54:12.891Z,3764
2018-04-19T09:55:13.523Z,3780
2018-04-19T09:56:14.200Z,3796
2018-04-19T09:57:14.887Z,3832
2018-04-19T09:58:15.570Z,3868
2018-04-19T09:59:16.252Z,3896
2018-04-19T10:00:16.934Z,3892
2018-04-19T10:01:17.620Z,3920
2018-04-19T10:02:18.361Z,3944
2018-04-19T10:03:18.981Z,3980
2018-04-19T10:04:19.664Z,3988
2018-04-19T10:05:20.342Z,4020
2018-04-19T10:06:21.024Z,4036
2018-04-19T10:07:21.708Z,4036
2018-04-19T10:08:22.389Z,4080
2018-04-19T10:09:23.076Z,4132
2018-04-19T10:10:23.758Z,4144
2018-04-19T10:11:24.435Z,4156
2018-04-19T10:12:25.119Z,4172
2018-04-19T10:13:25.800Z,4200
2018-04-19T10:14:26.477Z,4204
2018-04-19T10:15:27.157Z,4248
2018-04-19T10:16:27.840Z,4260
2018-04-19T10:17:28.520Z,4280
2018-04-19T10:18:29.210Z,4308
2018-04-19T10:19:29.891Z,4344
2018-04-19T10:20:30.576Z,4380
2018-04-19T10:21:31.306Z,4424
2018-04-19T10:22:31.942Z,4432
2018-04-19T10:23:32.625Z,4436
2018-04-19T10:24:33.308Z,4484
2018-04-19T10:25:33.989Z,4520
2018-04-19T10:26:34.751Z,4536
2018-04-19T10:27:35.489Z,4528
2018-04-19T10:28:36.115Z,4580
2018-04-19T10:29:36.793Z,4576
2018-04-19T10:30:37.473Z,4604
2018-04-19T10:31:38.154Z,4620
2018-04-19T10:32:38.837Z,4656
2018-04-19T10:33:39.528Z,4588
2018-04-19T10:34:40.206Z,4668
2018-04-19T10:35:40.885Z,4740
2018-04-19T10:36:41.570Z,4768
2018-04-19T10:37:42.250Z,4772
2018-04-19T10:38:42.937Z,4848
2018-04-19T10:39:43.619Z,4868
2018-04-19T10:40:44.297Z,4912
2018-04-19T10:41:44.984Z,4944
2018-04-19T10:42:45.667Z,4972
2018-04-19T10:43:46.347Z,5008
2018-04-19T10:44:47.029Z,5036
2018-04-19T10:45:47.713Z,5056
2018-04-19T10:46:48.400Z,5092
2018-04-19T10:47:49.079Z,5128
2018-04-19T10:48:49.762Z,5144
2018-04-19T10:49:50.446Z,5176
2018-04-19T10:50:51.128Z,5200
2018-04-19T10:51:51.816Z,5244
2018-04-19T10:52:52.501Z,5260
2018-04-19T10:53:53.181Z,5296
2018-04-19T10:54:53.862Z,5316
2018-04-19T10:55:54.538Z,5368
2018-04-19T10:56:55.230Z,5416
2018-04-19T10:57:55.909Z,5448
2018-04-19T10:58:56.592Z,5484
2018-04-19T10:59:57.272Z,5508
2018-04-19T11:00:58.008Z,5536
2018-04-19T11:01:58.640Z,5576
2018-04-19T11:02:59.323Z,5620
2018-04-19T11:04:00.005Z,5652
2018-04-19T11:05:00.690Z,5672
2018-04-19T11:06:01.371Z,5712
2018-04-19T11:07:02.053Z,5748
2018-04-19T11:08:02.740Z,5784
2018-04-19T11:09:03.419Z,5836
2018-04-19T11:10:04.103Z,5880
2018-04-19T11:11:04.785Z,5928
2018-04-19T11:12:05.464Z,5984
2018-04-19T11:13:06.200Z,6016
2018-04-19T11:14:06.881Z,6060
2018-04-19T11:15:07.566Z,6100
2018-04-19T11:16:08.246Z,6184
2018-04-19T11:17:08.936Z,6228
2018-04-19T11:18:09.620Z,6280
2018-04-19T11:19:10.304Z,6328
2018-04-19T11:20:10.985Z,6412
2018-04-19T11:21:11.669Z,6460
2018-04-19T11:22:12.349Z,6488
2018-04-19T11:23:13.043Z,6612
2018-04-19T11:24:13.724Z,6688
2018-04-19T11:25:14.407Z,6764
2018-04-19T11:26:15.089Z,6820
2018-04-19T11:27:15.772Z,6908
2018-04-19T11:28:16.463Z,6980
2018-04-19T11:29:17.139Z,7080
2018-04-19T11:30:17.830Z,7168
2018-04-19T11:31:18.509Z,7240
2018-04-19T11:32:19.194Z,16160
2018-04-19T11:33:19.880Z,50976
2018-04-19T11:34:20.567Z,57408
2018-04-19T11:35:21.251Z,63552
2018-04-19T11:36:21.943Z,62176
2018-04-19T11:37:22.630Z,71008
2018-04-19T11:38:23.318Z,85216
2018-04-19T11:39:24.012Z,76960
2018-04-19T11:40:24.700Z,89088
2018-04-19T11:41:25.388Z,94912
2018-04-19T11:42:26.076Z,80064
2018-04-19T11:43:26.763Z,100256
2018-04-19T11:44:27.456Z,100064
2018-04-19T11:45:28.142Z,90240
2018-04-19T11:46:28.834Z,85856
2018-04-19T11:47:29.522Z,65248
2018-04-19T11:48:30.212Z,86528
2018-04-19T11:49:30.905Z,83072
2018-04-19T11:50:31.598Z,87872
2018-04-19T11:51:32.287Z,87328
2018-04-19T11:52:32.971Z,84032
2018-04-19T11:53:33.701Z,85792
2018-04-19T11:54:34.355Z,85280
2018-04-19T11:55:35.046Z,85760
2018-04-19T11:56:35.745Z,88128
2018-04-19T11:57:36.442Z,84736
2018-04-19T11:58:37.128Z,82912
2018-04-19T11:59:37.827Z,84128
2018-04-19T12:00:38.517Z,85792
2018-04-19T12:01:39.209Z,82784
2018-04-19T12:02:39.901Z,76832
2018-04-19T12:03:40.591Z,78912
2018-04-19T12:04:41.287Z,83328
2018-04-19T12:05:41.979Z,70688
2018-04-19T12:06:42.667Z,69056
2018-04-19T12:07:43.371Z,69536
2018-04-19T12:08:44.063Z,74816
2018-04-19T12:09:44.763Z,79488
2018-04-19T12:10:45.456Z,76992
2018-04-19T12:11:46.149Z,82624
2018-04-19T12:12:46.839Z,80960
2018-04-19T12:13:47.640Z,79968
2018-04-19T12:14:48.235Z,73536
2018-04-19T12:15:48.925Z,82176
2018-04-19T12:16:49.619Z,85632
2018-04-19T12:17:50.308Z,68192
2018-04-19T12:18:51.014Z,63136
2018-04-19T12:19:51.704Z,72896
2018-04-19T12:20:52.405Z,77152
2018-04-19T12:21:53.096Z,88928
2018-04-19T12:22:53.838Z,95520
2018-04-19T12:23:54.527Z,99456
2018-04-19T12:24:55.226Z,100416
2018-04-19T12:25:55.916Z,95296
2018-04-19T12:26:56.626Z,91200
2018-04-19T12:27:57.319Z,90656
2018-04-19T12:28:58.014Z,87648
2018-04-19T12:29:58.706Z,84672
2018-04-19T12:30:59.398Z,88544
2018-04-19T12:32:00.091Z,95456
2018-04-19T12:33:00.785Z,98880
2018-04-19T12:34:01.482Z,96128
2018-04-19T12:35:02.174Z,98720
2018-04-19T12:36:02.878Z,95744
2018-04-19T12:37:03.576Z,90688
2018-04-19T12:38:04.269Z,83008
2018-04-19T12:39:04.966Z,81792
2018-04-19T12:40:05.661Z,79776
2018-04-19T12:41:06.356Z,82848
2018-04-19T12:42:07.053Z,88224
2018-04-19T12:43:07.750Z,87808
2018-04-19T12:44:08.444Z,91456
2018-04-19T12:45:09.143Z,94144
2018-04-19T12:46:09.838Z,94688
2018-04-19T12:47:10.538Z,93120
2018-04-19T12:48:11.232Z,91456
2018-04-19T12:49:11.932Z,77472
2018-04-19T12:50:12.629Z,82624
2018-04-19T12:51:13.326Z,77184
2018-04-19T12:52:14.021Z,77248
2018-04-19T12:53:14.718Z,72320
2018-04-19T12:54:15.431Z,70592
2018-04-19T12:55:16.124Z,70848
2018-04-19T12:56:16.829Z,74176
2018-04-19T12:57:17.528Z,78240
2018-04-19T12:58:18.223Z,79616
2018-04-19T12:59:18.919Z,79136
2018-04-19T13:00:19.613Z,77792
2018-04-19T13:01:20.316Z,73440
2018-04-19T13:02:21.020Z,67136
2018-04-19T13:03:21.716Z,62016
2018-04-19T13:04:22.410Z,63168
2018-04-19T13:05:23.103Z,61536
2018-04-19T13:06:23.807Z,65952
2018-04-19T13:07:24.504Z,60224
2018-04-19T13:08:25.207Z,42656
2018-04-19T13:09:25.899Z,31168
2018-04-19T13:10:26.588Z,32576
2018-04-19T13:11:27.282Z,32672
2018-04-19T13:12:27.977Z,30336
2018-04-19T13:13:28.670Z,28864
2018-04-19T13:14:29.367Z,30112
2018-04-19T13:15:30.057Z,32064
2018-04-19T13:16:30.751Z,33984
2018-04-19T13:17:31.443Z,34496
2018-04-19T13:18:32.143Z,30496
2018-04-19T13:19:32.839Z,24032
2018-04-19T13:20:33.533Z,16160
2018-04-19T13:21:34.226Z,19616
2018-04-19T13:22:34.918Z,58176
2018-04-19T13:23:35.611Z,57728
2018-04-19T13:24:36.300Z,67488
2018-04-19T13:25:36.995Z,69504
2018-04-19T13:26:37.690Z,63264
2018-04-19T13:27:38.387Z,64672
2018-04-19T13:28:39.083Z,62528
2018-04-19T13:29:39.776Z,59904
2018-04-19T13:30:40.468Z,59392
2018-04-19T13:31:41.161Z,61632
2018-04-19T13:32:41.856Z,64928
2018-04-19T13:33:42.548Z,61728
2018-04-19T13:34:43.252Z,61376
2018-04-19T13:35:43.952Z,61216
2018-04-19T13:36:44.760Z,58944
2018-04-19T13:37:45.454Z,57920
2018-04-19T13:38:46.152Z,58176
2018-04-19T13:39:46.850Z,59872
2018-04-19T13:40:47.546Z,59040
2018-04-19T13:41:48.243Z,60800
2018-04-19T13:42:48.941Z,58080
2018-04-19T13:43:49.635Z,51488
2018-04-19T13:44:50.331Z,46720
2018-04-19T13:45:51.027Z,52096
2018-04-19T13:46:51.724Z,48480
2018-04-19T13:47:52.421Z,54176
2018-04-19T13:48:53.117Z,57568
2018-04-19T13:49:53.817Z,55712